Time;durP1;ratioP1;P1;durP2;ratioP2;P2;SDS_P1;SDS_P2;PMS_P1;PMS_P2;Temp;Humidity;BMP_temperature;BMP_pressure;BME280_temperature;BME280_humidity;BME280_pressure;Samples;Min_cycle;Max_cycle;Signal;HPM_P1;HPM_P2
2023/07/18 00:00:27;;;;;;;5.20;3.30;;;;;;;22.34;55.41;97235.59;10528129;28;20520;-33
2023/07/18 00:05:28;;;;;;;3.72;3.17;;;;;;;22.33;55.37;97238.97;10529608;28;20028;-35
2023/07/18 00:10:28;;;;;;;4.70;3.20;;;;;;;22.27;54.86;97231.41;10528558;28;20039;-34
2023/07/18 00:15:29;;;;;;;4.13;2.77;;;;;;;22.21;55.01;97225.47;10522318;28;20048;-34
2023/07/18 00:20:30;;;;;;;6.20;3.75;;;;;;;22.22;54.95;97227.19;10525127;28;20115;-35
2023/07/18 00:25:31;;;;;;;6.18;3.40;;;;;;;22.20;54.60;97224.63;10530657;28;20058;-34
2023/07/18 00:30:31;;;;;;;6.07;3.73;;;;;;;22.09;54.03;97220.44;10539161;28;20109;-33
2023/07/18 00:35:32;;;;;;;5.47;3.53;;;;;;;22.15;54.25;97225.53;10531590;28;20039;-36
2023/07/18 00:40:33;;;;;;;4.50;2.80;;;;;;;22.23;54.08;97219.50;10531553;28;20025;-34
2023/07/18 00:45:33;;;;;;;4.50;2.60;;;;;;;22.19;53.73;97222.94;10534428;28;20043;-34
2023/07/18 00:50:33;;;;;;;3.95;2.83;;;;;;;22.13;53.59;97215.31;10531466;28;20040;-33
2023/07/18 00:55:34;;;;;;;3.67;2.80;;;;;;;21.93;54.20;97206.97;10528892;28;20032;-35
2023/07/18 01:00:35;;;;;;;4.95;3.10;;;;;;;22.07;53.80;97202.59;10505042;28;20731;-34
2023/07/18 01:05:37;;;;;;;4.63;2.90;;;;;;;21.95;53.63;97209.47;10531610;28;20111;-34
2023/07/18 01:10:38;;;;;;;4.60;3.10;;;;;;;22.01;53.61;97202.66;10525663;28;20032;-33
2023/07/18 01:15:39;;;;;;;4.70;3.67;;;;;;;22.03;53.34;97203.50;10524874;28;20093;-34
2023/07/18 01:20:40;;;;;;;4.67;2.30;;;;;;;22.03;53.40;97202.63;10530792;28;20398;-34
2023/07/18 01:25:41;;;;;;;2.58;2.25;;;;;;;22.03;53.23;97200.94;10522015;28;20045;-33
2023/07/18 01:30:42;;;;;;;4.57;2.80;;;;;;;21.95;52.44;97189.94;10523641;28;20047;-34
2023/07/18 01:35:42;;;;;;;7.67;2.47;;;;;;;21.91;52.67;97185.69;10528080;28;20486;-33
2023/07/18 01:40:43;;;;;;;5.78;2.53;;;;;;;21.91;52.42;97175.50;10507610;28;20417;-34
2023/07/18 01:45:43;;;;;;;5.13;2.70;;;;;;;21.86;52.33;97161.97;10534008;28;20042;-33
2023/07/18 01:50:44;;;;;;;6.97;2.57;;;;;;;21.67;52.77;97170.56;10531474;28;20848;-34
2023/07/18 01:55:44;;;;;;;4.63;2.35;;;;;;;21.83;52.58;97162.00;10532327;28;20070;-33
2023/07/18 02:00:44;;;;;;;2.70;2.33;;;;;;;21.89;52.70;97161.94;10519311;28;20059;-34
2023/07/18 02:05:45;;;;;;;4.53;2.37;;;;;;;21.99;52.17;97166.09;10537122;28;20058;-33
2023/07/18 02:10:45;;;;;;;4.07;2.10;;;;;;;21.91;52.45;97164.47;10533753;28;20036;-33
2023/07/18 02:15:46;;;;;;;3.83;1.90;;;;;;;21.93;52.10;97158.50;10530203;28;20129;-34
2023/07/18 02:20:47;;;;;;;7.50;2.35;;;;;;;21.91;51.36;97150.00;10536628;28;20043;-34
2023/07/18 02:25:47;;;;;;;4.87;2.30;;;;;;;21.93;51.62;97150.88;10518265;28;20042;-34
2023/07/18 02:30:47;;;;;;;3.67;2.10;;;;;;;21.91;51.73;97144.91;10532176;28;20108;-34
2023/07/18 02:35:51;;;;;;;4.07;2.37;;;;;;;21.94;51.76;97144.03;10534563;28;20413;-34
2023/07/18 02:40:54;;;;;;;2.22;1.88;;;;;;;21.96;51.74;97139.78;10524380;28;20407;-34
2023/07/18 02:45:55;;;;;;;3.13;2.03;;;;;;;22.03;51.38;97139.75;10524504;28;20040;-34
2023/07/18 02:50:55;;;;;;;3.95;1.83;;;;;;;21.96;51.25;97140.63;10528961;28;20043;-33
2023/07/18 02:55:56;;;;;;;3.37;2.10;;;;;;;21.95;51.23;97136.41;10535456;28;20115;-34
2023/07/18 03:00:56;;;;;;;3.47;1.90;;;;;;;21.91;50.75;97128.78;10532215;28;20024;-33
2023/07/18 03:05:56;;;;;;;3.77;2.10;;;;;;;21.86;50.95;97125.41;10535332;28;20497;-34
2023/07/18 03:10:57;;;;;;;3.03;2.20;;;;;;;21.87;50.63;97130.50;10516274;28;20290;-33
2023/07/18 03:15:57;;;;;;;2.50;1.63;;;;;;;21.82;50.61;97124.56;10528352;28;20054;-33
2023/07/18 03:20:59;;;;;;;3.55;1.75;;;;;;;21.86;51.21;97117.75;10523073;28;20278;-34
2023/07/18 03:25:59;;;;;;;2.45;1.80;;;;;;;21.94;51.01;97121.97;10528221;28;20413;-34
2023/07/18 03:31:00;;;;;;;2.87;1.70;;;;;;;21.94;50.75;97128.75;10516306;28;20122;-34
2023/07/18 03:36:00;;;;;;;3.30;2.05;;;;;;;21.81;50.63;97122.88;10531898;28;20405;-33
2023/07/18 03:41:03;;;;;;;3.28;1.40;;;;;;;21.06;51.40;97122.44;10534024;28;20027;-33
2023/07/18 03:46:03;;;;;;;4.10;1.63;;;;;;;20.57;51.13;97116.56;10513565;28;20066;-33
2023/07/18 03:51:05;;;;;;;2.40;1.50;;;;;;;20.38;50.74;97123.41;10533562;28;20035;-34
2023/07/18 03:56:06;;;;;;;3.78;1.52;;;;;;;20.32;50.43;97113.22;10531459;28;20516;-33
2023/07/18 04:01:08;;;;;;;2.72;1.75;;;;;;;20.17;50.49;97103.09;10518715;28;20034;-33
2023/07/18 04:06:09;;;;;;;2.40;1.90;;;;;;;20.23;50.73;97090.34;10526141;28;20114;-33
2023/07/18 04:11:09;;;;;;;4.47;1.60;;;;;;;20.33;50.71;97086.97;10526916;28;20036;-32
2023/07/18 04:16:09;;;;;;;4.43;2.00;;;;;;;20.21;50.59;97079.34;10524516;28;20115;-32
2023/07/18 04:21:10;;;;;;;3.90;1.70;;;;;;;20.04;50.55;97086.09;10532107;28;20444;-33
2023/07/18 04:26:12;;;;;;;3.80;1.67;;;;;;;20.07;51.15;97081.91;10529900;28;20046;-33
2023/07/18 04:31:13;;;;;;;4.93;1.85;;;;;;;20.17;50.94;97075.13;10525521;28;20028;-33
2023/07/18 04:36:13;;;;;;;5.97;1.98;;;;;;;20.15;51.48;97079.34;10527255;28;20039;-33
2023/07/18 04:41:14;;;;;;;3.23;1.87;;;;;;;20.03;52.83;97069.16;10530225;28;20038;-33
2023/07/18 04:46:14;;;;;;;3.57;2.30;;;;;;;20.02;51.88;97058.13;10530708;28;20040;-33
2023/07/18 04:51:16;;;;;;;4.83;1.63;;;;;;;19.98;52.51;97060.69;10527456;28;20040;-32
2023/07/18 04:56:17;;;;;;;3.25;2.40;;;;;;;20.44;52.44;97058.09;10513467;28;20441;-34
2023/07/18 05:01:17;;;;;;;6.03;1.70;;;;;;;20.93;51.25;97059.66;10523157;28;20115;-33
2023/07/18 05:06:17;;;;;;;4.83;2.13;;;;;;;21.17;50.86;97059.56;10492640;28;20028;-34
2023/07/18 05:11:18;;;;;;;3.50;1.50;;;;;;;21.29;50.69;97050.16;10521495;28;20028;-33
2023/07/18 05:16:18;;;;;;;4.27;1.97;;;;;;;21.38;50.93;97050.09;10528689;28;20802;-34
2023/07/18 05:21:18;;;;;;;8.50;2.03;;;;;;;21.44;50.95;97050.06;10529726;28;20658;-34
2023/07/18 05:26:19;;;;;;;13.23;2.50;;;;;;;21.57;51.24;97051.66;10551289;28;20349;-33
2023/07/18 05:31:20;;;;;;;11.43;2.93;;;;;;;21.72;51.31;97040.56;10535545;28;20293;-33
2023/07/18 05:36:20;;;;;;;17.15;2.33;;;;;;;21.73;51.20;97043.09;10535607;28;20099;-34
2023/07/18 05:41:21;;;;;;;7.20;2.07;;;;;;;21.68;51.25;97039.75;10530861;28;20035;-34
2023/07/18 05:46:21;;;;;;;4.47;2.20;;;;;;;21.67;51.43;97032.97;10547648;28;20032;-33
2023/07/18 05:51:22;;;;;;;6.13;1.97;;;;;;;21.66;51.69;97025.31;10533775;28;20032;-34
2023/07/18 05:56:22;;;;;;;7.28;1.60;;;;;;;21.67;51.76;97021.91;10525638;28;20024;-35
2023/07/18 06:01:22;;;;;;;7.03;1.90;;;;;;;21.68;52.02;97019.34;10535647;28;20020;-34
2023/07/18 06:06:23;;;;;;;5.60;1.77;;;;;;;21.68;52.03;97016.81;10544598;28;20031;-34
2023/07/18 06:11:24;;;;;;;7.80;2.30;;;;;;;21.83;51.98;97024.34;10546175;28;20303;-33
2023/07/18 06:16:24;;;;;;;8.80;2.00;;;;;;;21.90;52.10;97020.84;10535807;28;20031;-33
2023/07/18 06:21:27;;;;;;;8.17;2.37;;;;;;;21.86;52.04;97023.44;10555809;28;20818;-34
2023/07/18 06:26:28;;;;;;;4.45;1.73;;;;;;;21.78;52.32;97020.97;10548693;28;20039;-33
2023/07/18 06:31:29;;;;;;;3.70;1.67;;;;;;;21.76;52.28;97027.78;10541001;28;20028;-34
2023/07/18 06:36:29;;;;;;;2.78;1.58;;;;;;;21.76;52.48;97009.09;10553293;28;20032;-34
2023/07/18 06:41:29;;;;;;;6.80;1.47;;;;;;;21.75;52.70;97000.63;10546846;28;20029;-34
2023/07/18 06:46:31;;;;;;;4.38;1.85;;;;;;;21.72;52.59;97008.25;10516035;28;20055;-33
2023/07/18 06:51:32;;;;;;;3.43;1.23;;;;;;;21.74;52.78;96998.88;10553416;28;20796;-34
2023/07/18 06:56:32;;;;;;;3.50;1.75;;;;;;;21.91;52.62;96991.94;10552517;28;20308;-34
2023/07/18 07:01:33;;;;;;;4.57;1.83;;;;;;;21.97;52.51;96975.78;10547719;28;20027;-33
2023/07/18 07:06:33;;;;;;;3.67;1.90;;;;;;;21.91;52.61;96970.72;10532850;28;20084;-33
2023/07/18 07:11:34;;;;;;;2.33;1.60;;;;;;;21.81;52.83;96962.31;10535687;28;20042;-34
2023/07/18 07:16:35;;;;;;;3.70;1.50;;;;;;;21.82;52.99;96971.63;10537327;28;20378;-34
2023/07/18 07:21:35;;;;;;;3.20;1.40;;;;;;;21.79;53.36;96961.47;10532553;28;20028;-34
2023/07/18 07:26:38;;;;;;;3.80;1.23;;;;;;;21.79;53.25;96958.94;10529043;28;20311;-33
2023/07/18 07:31:38;;;;;;;3.90;1.77;;;;;;;21.78;53.22;96954.69;10540647;28;20033;-34
2023/07/18 07:36:39;;;;;;;7.13;1.60;;;;;;;21.83;53.45;96944.44;10539370;28;20032;-35
2023/07/18 07:41:39;;;;;;;3.63;1.77;;;;;;;21.99;53.44;96934.06;10534278;28;20032;-34
2023/07/18 07:46:39;;;;;;;3.20;1.80;;;;;;;22.00;52.88;96934.94;10523612;28;20293;-34
2023/07/18 07:51:40;;;;;;;3.00;1.63;;;;;;;21.96;53.18;96958.75;10526131;28;20818;-33
2023/07/18 07:56:41;;;;;;;1.77;1.17;;;;;;;21.87;53.13;96944.41;10534265;28;20036;-34
2023/07/18 08:01:41;;;;;;;2.57;1.30;;;;;;;21.84;53.09;96946.13;10526640;28;20024;-33
2023/07/18 08:06:41;;;;;;;3.95;1.10;;;;;;;21.84;53.70;96941.91;10536952;28;20284;-34
2023/07/18 08:11:42;;;;;;;1.73;1.27;;;;;;;21.84;53.66;96939.34;10533100;28;20032;-34
2023/07/18 08:16:45;;;;;;;2.80;1.57;;;;;;;21.82;53.84;96928.31;10539974;28;20293;-33
2023/07/18 08:21:45;;;;;;;3.92;1.45;;;;;;;21.87;53.61;96926.56;10534846;28;20027;-34
2023/07/18 08:26:45;;;;;;;3.73;1.47;;;;;;;22.03;53.44;96935.75;10549854;28;20032;-33
2023/07/18 08:31:46;;;;;;;4.13;2.03;;;;;;;22.07;53.31;96932.28;10546930;28;20356;-33
2023/07/18 08:36:47;;;;;;;2.60;1.30;;;;;;;22.00;53.27;96930.69;10544551;28;20039;-33
2023/07/18 08:41:51;;;;;;;5.45;1.58;;;;;;;21.93;53.40;96930.75;10536981;28;20016;-34
2023/07/18 08:46:52;;;;;;;4.13;1.52;;;;;;;21.88;53.67;96940.16;10538336;28;20199;-33
2023/07/18 08:51:52;;;;;;;2.58;1.38;;;;;;;21.88;53.88;96935.06;10552044;28;20042;-35
2023/07/18 08:56:56;;;;;;;2.17;1.10;;;;;;;21.86;53.85;96922.34;10546413;28;20504;-33
2023/07/18 09:01:57;;;;;;;1.95;1.48;;;;;;;21.85;53.88;96907.91;10548097;28;20396;-34
2023/07/18 09:06:58;;;;;;;2.73;1.30;;;;;;;21.86;53.94;96894.28;10553644;28;20110;-34
2023/07/18 09:12:04;;;;;;;1.88;1.27;;;;;;;22.05;53.90;96911.06;10559056;28;20031;-33
2023/07/18 09:17:06;;;;;;;2.90;1.38;;;;;;;22.11;53.68;96939.06;10529824;28;20052;-33
2023/07/18 09:22:09;;;;;;;2.72;1.40;;;;;;;22.03;53.69;96863.50;10534239;28;20031;-33
2023/07/18 09:27:18;;;;;;;2.88;1.13;;;;;;;21.99;53.97;97060.72;10528471;28;20036;-33
2023/07/18 09:32:20;;;;;;;1.77;1.15;;;;;;;21.93;54.28;97107.53;10533020;28;20186;-34
2023/07/18 09:37:20;;;;;;;2.17;1.10;;;;;;;21.88;54.29;97040.41;10556184;28;20111;-34
2023/07/18 09:42:23;;;;;;;1.50;1.20;;;;;;;21.86;54.22;96950.38;10554588;28;20036;-34
2023/07/18 09:47:23;;;;;;;1.63;1.00;;;;;;;21.85;54.36;96907.91;10528456;28;20040;-34
2023/07/18 09:52:26;;;;;;;2.95;1.23;;;;;;;21.87;54.79;96900.22;10534735;28;20066;-34
2023/07/18 09:57:28;;;;;;;1.75;1.20;;;;;;;22.04;54.15;96860.94;10531614;28;20491;-33
2023/07/18 10:02:28;;;;;;;1.63;1.20;;;;;;;22.10;53.94;96821.75;10559317;28;20104;-33
2023/07/18 10:07:32;;;;;;;1.03;0.93;;;;;;;22.05;54.08;96836.28;10530984;28;20043;-34
2023/07/18 10:12:54;;;;;;;1.98;1.20;;;;;;;21.98;54.13;96832.94;10532444;28;20546;-34
2023/07/18 10:18:15;;;;;;;2.20;1.10;;;;;;;21.94;54.36;96889.94;10544604;28;20031;-33
2023/07/18 10:23:16;;;;;;;2.60;1.08;;;;;;;21.93;54.72;96923.97;10542909;28;21119;-34
2023/07/18 10:28:17;;;;;;;2.08;1.38;;;;;;;21.89;54.31;96862.81;10552131;28;20040;-34
2023/07/18 10:33:17;;;;;;;1.40;1.00;;;;;;;21.90;54.58;96959.66;10539226;28;20040;-33
2023/07/18 10:38:18;;;;;;;1.60;1.30;;;;;;;21.94;54.78;97123.66;10534973;28;20442;-33
2023/07/18 10:43:20;;;;;;;1.50;1.17;;;;;;;22.10;54.57;97214.50;10536498;28;20842;-31
2023/07/18 10:48:20;;;;;;;1.40;1.15;;;;;;;22.14;54.46;97326.69;10537544;28;20319;-33
2023/07/18 10:53:22;;;;;;;2.38;2.17;;;;;;;22.07;54.57;97355.63;10547759;28;20036;-34
2023/07/18 10:58:23;;;;;;;1.90;1.20;;;;;;;21.94;54.35;97252.00;10554122;28;20039;-33
2023/07/18 11:03:27;;;;;;;2.17;1.30;;;;;;;21.88;54.82;97004.72;10542360;28;20039;-35
2023/07/18 11:08:29;;;;;;;1.70;1.40;;;;;;;21.90;54.75;97004.72;10539567;28;20039;-34
2023/07/18 11:13:30;;;;;;;2.05;1.10;;;;;;;21.89;54.74;97011.50;10547260;28;20032;-33
2023/07/18 11:18:32;;;;;;;2.10;1.10;;;;;;;21.85;55.08;96979.28;10531469;28;20045;-33
2023/07/18 11:23:34;;;;;;;1.60;1.23;;;;;;;21.90;55.07;97031.03;10552349;28;20032;-34
2023/07/18 11:28:36;;;;;;;1.75;1.33;;;;;;;22.08;55.41;97053.81;10526998;28;20060;-33
2023/07/18 11:33:36;;;;;;;3.08;1.10;;;;;;;22.12;54.75;97011.28;10541656;28;20078;-34
2023/07/18 11:38:38;;;;;;;1.63;1.20;;;;;;;22.06;54.84;97006.28;10542969;28;20501;-33
2023/07/18 11:43:41;;;;;;;3.05;1.40;;;;;;;21.99;55.11;96872.06;10538237;28;20119;-34
2023/07/18 11:48:41;;;;;;;3.95;1.77;;;;;;;21.96;55.33;96767.53;10546028;28;20035;-33
2023/07/18 11:53:41;;;;;;;3.73;1.70;;;;;;;21.93;55.33;96643.53;10544294;28;20050;-33
2023/07/18 11:58:42;;;;;;;4.63;2.43;;;;;;;21.97;55.31;96654.53;10533491;28;20028;-34
2023/07/18 12:03:42;;;;;;;4.93;1.87;;;;;;;22.00;55.33;96691.03;10529671;28;20055;-34
2023/07/18 12:08:42;;;;;;;2.83;1.20;;;;;;;22.01;55.36;96687.59;10541563;28;20032;-34
2023/07/18 12:13:43;;;;;;;7.10;2.03;;;;;;;22.17;55.52;96768.13;10542869;28;20040;-34
2023/07/18 12:18:44;;;;;;;5.00;2.55;;;;;;;22.21;55.30;96785.06;10546541;28;20035;-33
2023/07/18 12:23:44;;;;;;;11.93;4.33;;;;;;;22.12;56.12;96780.09;10530747;28;20043;-34
2023/07/18 12:28:44;;;;;;;7.20;3.57;;;;;;;22.02;55.93;96740.28;10522327;28;20046;-33
2023/07/18 12:33:45;;;;;;;13.63;3.07;;;;;;;21.98;55.79;96651.94;10537932;28;20521;-34
2023/07/18 12:38:46;;;;;;;13.48;3.58;;;;;;;21.96;55.88;96656.22;10537496;28;20032;-34
2023/07/18 12:43:46;;;;;;;9.15;3.67;;;;;;;21.96;56.10;96642.63;10536542;28;20036;-33
2023/07/18 12:48:46;;;;;;;13.87;5.47;;;;;;;21.95;56.14;96631.59;10534179;28;20036;-34
2023/07/18 12:53:48;;;;;;;9.23;2.93;;;;;;;21.98;56.41;96651.94;10543739;28;20042;-34
2023/07/18 12:58:48;;;;;;;9.93;2.95;;;;;;;22.16;56.53;96654.22;10533957;28;20047;-34
2023/07/18 13:03:48;;;;;;;9.80;3.20;;;;;;;22.19;56.02;96664.38;10547498;28;20059;-33
2023/07/18 13:08:50;;;;;;;6.40;3.07;;;;;;;22.12;55.83;96626.22;10525812;28;20293;-33
2023/07/18 13:13:51;;;;;;;7.20;3.88;;;;;;;22.04;55.77;96712.19;10541158;28;20032;-34
2023/07/18 13:18:51;;;;;;;4.75;2.88;;;;;;;21.99;56.07;96703.78;10538486;28;20035;-33
2023/07/18 13:23:52;;;;;;;4.27;2.57;;;;;;;21.98;55.88;96737.78;10549195;28;20032;-33
2023/07/18 13:28:52;;;;;;;5.17;2.53;;;;;;;21.95;56.00;96715.72;10531843;28;20032;-33
2023/07/18 13:33:52;;;;;;;6.07;2.37;;;;;;;21.96;55.93;96773.50;10529630;28;20440;-33
2023/07/18 13:38:53;;;;;;;9.10;2.50;;;;;;;21.95;56.05;96779.47;10542660;28;20024;-34
2023/07/18 13:43:53;;;;;;;7.47;2.47;;;;;;;22.15;56.61;96813.19;10551435;28;20285;-33
2023/07/18 13:48:54;;;;;;;11.20;2.63;;;;;;;22.21;55.95;96835.22;10532795;28;20028;-34
2023/07/18 13:53:54;;;;;;;5.88;2.42;;;;;;;22.14;55.90;96803.03;10550494;28;20346;-33
2023/07/18 13:58:54;;;;;;;4.93;2.47;;;;;;;22.01;55.91;96738.59;10542314;28;20583;-34
2023/07/18 14:03:55;;;;;;;3.70;2.10;;;;;;;21.98;55.90;96710.56;10548839;28;20281;-34
2023/07/18 14:08:55;;;;;;;3.53;2.10;;;;;;;21.97;56.04;96664.72;10523321;28;20097;-34
2023/07/18 14:13:55;;;;;;;5.63;2.00;;;;;;;21.99;56.26;96582.22;10544903;28;20058;-33
2023/07/18 14:18:57;;;;;;;15.87;3.13;;;;;;;21.99;56.29;96545.72;10533425;28;20030;-33
2023/07/18 14:23:57;;;;;;;16.05;3.40;;;;;;;21.99;56.74;96578.88;10547412;28;20321;-34
2023/07/18 14:28:58;;;;;;;15.80;2.57;;;;;;;22.18;57.41;96647.41;10541223;28;20093;-33
2023/07/18 14:33:58;;;;;;;8.93;2.20;;;;;;;22.26;56.84;96699.13;10541705;28;20285;-33
2023/07/18 14:38:58;;;;;;;10.10;2.90;;;;;;;22.21;56.88;96702.59;10534867;28;20285;-33
2023/07/18 14:43:59;;;;;;;8.67;2.80;;;;;;;22.05;57.05;96546.44;10557321;28;20443;-34
2023/07/18 14:48:59;;;;;;;6.13;2.65;;;;;;;22.02;57.10;96566.91;10537489;28;20425;-33
2023/07/18 14:54:00;;;;;;;9.20;2.63;;;;;;;22.00;57.10;96563.56;10537992;28;20039;-33
2023/07/18 14:59:00;;;;;;;7.10;2.80;;;;;;;22.00;57.10;96585.63;10548938;28;20020;-34
2023/07/18 15:04:00;;;;;;;13.10;3.23;;;;;;;22.01;57.19;96606.03;10535879;28;20166;-33
2023/07/18 15:09:01;;;;;;;6.70;2.40;;;;;;;21.98;57.30;96592.47;10542060;28;20034;-34
2023/07/18 15:14:01;;;;;;;9.83;2.67;;;;;;;22.11;57.56;96619.44;10558931;28;20279;-34
2023/07/18 15:19:02;;;;;;;8.23;2.67;;;;;;;22.24;57.91;96598.00;10551037;28;20047;-34
2023/07/18 15:24:03;;;;;;;5.70;2.60;;;;;;;22.24;57.13;96603.09;10541660;28;20023;-34
2023/07/18 15:29:04;;;;;;;9.25;1.90;;;;;;;22.13;57.48;96605.00;10545309;28;20028;-33
2023/07/18 15:34:04;;;;;;;7.80;2.53;;;;;;;22.08;57.61;96592.28;10538996;28;20027;-34
2023/07/18 15:39:05;;;;;;;5.80;1.90;;;;;;;22.04;57.36;96575.38;10529850;28;20028;-34
2023/07/18 15:44:05;;;;;;;3.13;1.40;;;;;;;22.01;57.31;96570.34;10554837;28;20028;-35
2023/07/18 15:49:08;;;;;;;9.45;2.47;;;;;;;21.99;57.41;96572.03;10527615;28;20020;-33
2023/07/18 15:54:08;;;;;;;6.93;2.38;;;;;;;21.99;57.58;96548.28;10549705;28;20042;-33
2023/07/18 15:59:09;;;;;;;8.37;2.17;;;;;;;22.03;57.85;96532.03;10540385;28;20402;-33
2023/07/18 16:04:09;;;;;;;6.45;2.67;;;;;;;22.20;58.25;96518.16;10546135;28;20524;-33
2023/07/18 16:09:10;;;;;;;4.13;1.80;;;;;;;22.28;57.49;96512.91;10544598;28;20122;-34
2023/07/18 16:14:12;;;;;;;9.17;3.00;;;;;;;22.19;57.41;96506.25;10552014;28;20044;-34
2023/07/18 16:19:12;;;;;;;2.97;1.65;;;;;;;22.09;56.95;96517.50;10534447;28;20078;-33
2023/07/18 16:24:13;;;;;;;8.73;2.30;;;;;;;22.05;57.40;96515.84;10527125;28;20038;-35
2023/07/18 16:29:13;;;;;;;4.50;2.00;;;;;;;22.02;57.44;96521.00;10523398;28;20043;-33
2023/07/18 16:34:15;;;;;;;7.43;3.40;;;;;;;22.08;58.76;96509.88;10536749;28;20285;-33
2023/07/18 16:39:16;;;;;;;6.18;2.17;;;;;;;22.11;58.49;96513.22;10532169;28;20048;-33
2023/07/18 16:44:16;;;;;;;10.10;3.33;;;;;;;22.29;58.38;96528.19;10522704;28;20035;-33
2023/07/18 16:49:17;;;;;;;7.30;1.90;;;;;;;22.31;57.63;96523.06;10532797;28;20028;-34
2023/07/18 16:54:17;;;;;;;7.10;2.60;;;;;;;22.16;58.16;96524.16;10539845;28;20035;-33
2023/07/18 16:59:17;;;;;;;3.17;2.30;;;;;;;22.11;57.75;96531.06;10531616;28;20046;-33
2023/07/18 17:04:18;;;;;;;9.83;2.00;;;;;;;22.07;57.60;96534.50;10525404;28;20289;-34
2023/07/18 17:09:18;;;;;;;9.97;2.50;;;;;;;22.06;57.59;96527.72;10527371;28;20771;-34
2023/07/18 17:14:18;;;;;;;6.40;2.13;;;;;;;22.03;57.66;96506.53;10536964;28;20036;-33
2023/07/18 17:19:19;;;;;;;6.83;2.20;;;;;;;22.22;58.73;96482.41;10535726;28;20036;-33
2023/07/18 17:24:19;;;;;;;7.50;2.60;;;;;;;22.32;58.25;96464.34;10539957;28;20034;-34
2023/07/18 17:29:20;;;;;;;5.83;1.87;;;;;;;22.21;57.67;96456.06;10538579;28;20481;-33
2023/07/18 17:34:20;;;;;;;6.30;2.08;;;;;;;22.19;57.41;96441.66;10539277;28;20044;-34
2023/07/18 17:39:21;;;;;;;5.37;2.03;;;;;;;22.15;57.46;96451.06;10532973;28;20036;-33
2023/07/18 17:44:21;;;;;;;4.93;1.98;;;;;;;22.16;57.60;96462.94;10530558;28;20027;-34
2023/07/18 17:49:21;;;;;;;2.85;2.25;;;;;;;22.15;57.50;96443.41;10538269;28;20032;-36
2023/07/18 17:54:22;;;;;;;4.07;1.77;;;;;;;22.13;57.68;96432.41;10537311;28;20120;-35
2023/07/18 17:59:22;;;;;;;8.80;2.28;;;;;;;22.23;58.74;96428.81;10541533;28;20027;-34
2023/07/18 18:04:23;;;;;;;7.22;3.45;;;;;;;22.37;58.90;96426.00;10529845;28;20530;-34
2023/07/18 18:09:23;;;;;;;4.93;2.37;;;;;;;22.31;57.77;96432.06;10526129;28;20516;-34
2023/07/18 18:14:23;;;;;;;3.53;1.60;;;;;;;22.23;57.32;96433.91;10526422;28;20024;-33
2023/07/18 18:19:24;;;;;;;5.63;1.80;;;;;;;22.20;57.53;96438.22;10532674;28;20282;-33
2023/07/18 18:24:24;;;;;;;3.47;2.03;;;;;;;22.15;57.50;96440.88;10531977;28;20028;-33
2023/07/18 18:29:26;;;;;;;2.67;1.80;;;;;;;22.15;57.71;96458.72;10526060;28;20313;-33
2023/07/18 18:34:27;;;;;;;4.45;2.33;;;;;;;22.17;57.99;96484.19;10536060;28;20085;-33
2023/07/18 18:39:28;;;;;;;4.57;1.75;;;;;;;22.14;57.52;96485.09;10530180;28;20036;-33
2023/07/18 18:44:28;;;;;;;5.33;2.03;;;;;;;22.28;58.52;96503.53;10529278;28;20031;-34
2023/07/18 18:49:30;;;;;;;6.00;2.53;;;;;;;22.38;58.63;96505.06;10529951;28;20048;-34
2023/07/18 18:54:30;;;;;;;5.88;1.73;;;;;;;22.29;57.68;96500.13;10530890;28;20028;-34
2023/07/18 18:59:30;;;;;;;2.87;1.37;;;;;;;22.20;57.37;96495.19;10532572;28;20041;-35
2023/07/18 19:04:31;;;;;;;2.20;1.40;;;;;;;22.20;57.62;96497.75;10534193;28;20070;-34
2023/07/18 19:09:31;;;;;;;3.20;1.40;;;;;;;22.18;57.53;96502.03;10521788;28;20024;-33
2023/07/18 19:14:35;;;;;;;7.00;1.73;;;;;;;22.14;57.71;96518.25;10530777;28;20639;-34
2023/07/18 19:19:40;;;;;;;1.48;1.30;;;;;;;22.16;57.68;96508.84;10533581;28;20132;-34
2023/07/18 19:24:41;;;;;;;3.30;1.57;;;;;;;22.13;57.92;96508.09;10538848;28;20449;-34
2023/07/18 19:29:42;;;;;;;5.70;2.08;;;;;;;22.28;59.00;96513.75;10534535;28;20081;-34
2023/07/18 19:34:42;;;;;;;6.60;2.53;;;;;;;22.40;59.19;96512.69;10533864;28;20424;-33
2023/07/18 19:39:45;;;;;;;2.93;1.57;;;;;;;22.31;57.62;96511.13;10531212;28;20021;-34
2023/07/18 19:44:45;;;;;;;1.85;1.17;;;;;;;22.24;57.16;96512.09;10527647;28;20024;-34
2023/07/18 19:49:46;;;;;;;5.47;2.00;;;;;;;22.20;57.70;96523.25;10529853;28;20032;-34
2023/07/18 19:54:46;;;;;;;3.53;1.77;;;;;;;22.18;57.67;96517.34;10530219;28;20119;-34
2023/07/18 19:59:47;;;;;;;4.03;1.40;;;;;;;22.16;57.65;96524.16;10533022;28;20032;-34
2023/07/18 20:04:47;;;;;;;3.13;1.80;;;;;;;22.14;57.88;96538.63;10530863;28;20111;-33
2023/07/18 20:09:48;;;;;;;3.10;1.50;;;;;;;22.14;58.00;96537.81;10532546;28;20408;-35
2023/07/18 20:14:48;;;;;;;3.87;1.70;;;;;;;22.25;58.82;96544.41;10528122;28;20286;-33
2023/07/18 20:19:49;;;;;;;3.83;1.98;;;;;;;22.39;59.65;96539.88;10532882;28;20044;-33
2023/07/18 20:24:50;;;;;;;3.90;2.03;;;;;;;22.34;58.55;96544.25;10529704;28;20032;-34
2023/07/18 20:29:50;;;;;;;2.08;1.50;;;;;;;22.24;57.79;96534.22;10537380;28;20115;-33
2023/07/18 20:34:51;;;;;;;2.10;1.43;;;;;;;22.18;57.85;96535.19;10532277;28;20055;-35
2023/07/18 20:39:51;;;;;;;3.05;1.83;;;;;;;22.17;58.01;96537.75;10522013;28;20286;-34
2023/07/18 20:44:52;;;;;;;1.90;1.50;;;;;;;22.17;58.09;96545.41;10525609;28;20036;-34
2023/07/18 20:49:52;;;;;;;3.03;2.40;;;;;;;22.15;58.05;96544.59;10532736;28;20095;-34
2023/07/18 20:54:53;;;;;;;1.83;1.40;;;;;;;22.13;58.10;96543.78;10530336;28;20032;-33
2023/07/18 20:59:53;;;;;;;2.83;1.70;;;;;;;22.19;58.83;96544.50;10535343;28;20781;-33
2023/07/18 21:04:53;;;;;;;2.37;2.10;;;;;;;22.35;59.46;96545.94;10530025;28;20032;-34
2023/07/18 21:09:53;;;;;;;4.90;2.17;;;;;;;22.37;58.97;96538.22;10544023;28;20122;-34
2023/07/18 21:14:54;;;;;;;3.37;2.23;;;;;;;22.25;58.40;96536.78;10535245;28;20038;-34
2023/07/18 21:19:54;;;;;;;3.80;1.50;;;;;;;22.18;58.26;96535.19;10517630;28;20024;-34
2023/07/18 21:24:55;;;;;;;2.22;1.52;;;;;;;22.16;58.06;96531.81;10528154;28;20043;-33
2023/07/18 21:29:55;;;;;;;4.27;1.50;;;;;;;22.13;57.96;96529.31;10531148;28;20032;-33
2023/07/18 21:34:56;;;;;;;3.80;1.90;;;;;;;22.12;58.29;96527.63;10550031;28;20683;-34
2023/07/18 21:39:56;;;;;;;1.70;1.30;;;;;;;22.06;58.03;96521.81;10524848;28;20486;-34
2023/07/18 21:44:59;;;;;;;3.73;1.90;;;;;;;22.11;58.25;96530.19;10530890;28;20489;-33
2023/07/18 21:49:59;;;;;;;5.43;2.55;;;;;;;22.31;60.98;96534.09;10543415;28;20237;-33
2023/07/18 21:54:59;;;;;;;2.83;2.20;;;;;;;22.37;60.33;96530.56;10523987;28;20687;-34
2023/07/18 22:00:00;;;;;;;3.23;1.60;;;;;;;22.29;59.03;96543.47;10542739;28;20420;-34
2023/07/18 22:05:01;;;;;;;3.42;1.95;;;;;;;22.18;58.29;96541.97;10531466;28;20289;-34
2023/07/18 22:10:02;;;;;;;4.75;1.75;;;;;;;22.14;58.17;96540.38;10547883;28;20409;-34
2023/07/18 22:15:03;;;;;;;8.10;2.03;;;;;;;22.11;58.10;96541.25;10544123;28;20039;-34
2023/07/18 22:20:05;;;;;;;4.57;2.13;;;;;;;22.10;58.25;96549.78;10537260;28;20031;-34
2023/07/18 22:25:06;;;;;;;2.72;1.88;;;;;;;22.10;58.27;96543.81;10537472;28;20401;-34
2023/07/18 22:30:07;;;;;;;4.20;1.48;;;;;;;22.08;58.10;96545.56;10536586;28;20070;-34
2023/07/18 22:35:07;;;;;;;4.00;2.85;;;;;;;22.24;59.64;96550.38;10534831;28;20089;-34
2023/07/18 22:40:08;;;;;;;5.80;3.55;;;;;;;22.36;60.74;96546.75;10531481;28;20131;-34
2023/07/18 22:45:09;;;;;;;2.38;1.73;;;;;;;22.31;58.72;96549.38;10534844;28;20054;-34
2023/07/18 22:50:09;;;;;;;2.83;2.17;;;;;;;22.19;58.41;96549.63;10534138;28;20038;-34
2023/07/18 22:55:11;;;;;;;3.58;2.33;;;;;;;22.14;58.17;96541.19;10540246;28;20428;-34
2023/07/18 23:00:12;;;;;;;3.17;1.90;;;;;;;22.11;58.30;96541.25;10533540;28;20034;-33
2023/07/18 23:05:12;;;;;;;1.55;1.42;;;;;;;22.08;58.14;96538.75;10544856;28;20032;-34
2023/07/18 23:10:13;;;;;;;4.60;2.72;;;;;;;22.08;58.20;96514.97;10534005;28;20113;-34
2023/07/18 23:15:13;;;;;;;5.07;2.20;;;;;;;22.06;58.11;96512.44;10527921;28;20044;-33